• Join FlightAware (Why Join?)
  • Login
  • US Flag 
04:42PM EDT


 

Airport Tracker/Info


-or-


 

Live Flight TrackerFlight Track Log ✈ UAL5863 ✈ 23-Jun-2013 ✈ KTYS - KORD

Flight Track Log - Related Links

Times and Time Zones

All times are in EDT time to prevent confusion due to time zone crossing. See the UAL5863 flight status page for this flight to view local times or setup timezone preferences in your user account.

Time Position Orientation Groundspeed Altitude Reporting Facility
EDT Latitude Longitude Course Direction KTS MPH feet Rate Location/Type
07:26AM 35.8331 -84.0747 349° North 166 191 4,400  Level Atlanta Center
07:27AM 35.9081 -84.0875 352° North 204 235 6,900 2,280 Climbing Atlanta Center
07:28AM 36.1001 -83.9333 349° North  Level FlightAware Approximate
07:28AM 35.9872 -84.1003 353° North 241 277 9,000  Level Atlanta Center
07:29AM 36.1821 -83.9551 345° North  Level FlightAware Approximate
07:29AM 36.0686 -84.1158 351° North 278 320 10,900  Level Atlanta Center
07:30AM 36.2632 -83.9821 345° North  Level FlightAware Approximate
07:30AM 36.1606 -84.1261 355° North 325 374 12,000  Level Indianapolis Center
07:31AM 36.3447 -84.0070 349° North  Level FlightAware Approximate
07:31AM 36.2614 -84.1414 353° North 357 411 13,400  Level Indianapolis Center
07:32AM 36.3644 -84.1586 352° North 372 428 15,000 1,440 Climbing Indianapolis Center
07:33AM 36.4686 -84.1756 353° North 376 433 16,400 1,320 Climbing Indianapolis Center
07:34AM 36.5756 -84.1922 353° North 377 434 17,700 1,140 Climbing Indianapolis Center
07:35AM 36.6836 -84.2100 352° North 386 444 18,800 900 Climbing Indianapolis Center
07:36AM 36.7942 -84.2275 353° North 395 455 19,600 960 Climbing Indianapolis Center
07:37AM 36.9269 -84.2503 352° North 408 470 20,800 1,260 Climbing Indianapolis Center
07:38AM 37.0417 -84.2708 352° North 411 473 22,200 1,320 Climbing Indianapolis Center
07:39AM 37.1536 -84.3039 347° North 409 471 23,500 1,200 Climbing Indianapolis Center
07:40AM 37.2647 -84.3456 343° North 413 475 24,700 1,140 Climbing Indianapolis Center
07:41AM 37.3739 -84.3858 344° North 409 471 25,900 600 Climbing Indianapolis Center
07:42AM 37.4861 -84.4275 344° North 416 479 26,000 480 Climbing Indianapolis Center
07:43AM 37.6053 -84.4700 344° North 439 505 26,900 900 Climbing Indianapolis Center
07:44AM 37.7200 -84.5144 343° North 429 494 27,900 900 Climbing Indianapolis Center
07:45AM 37.8336 -84.5611 342° North 426 490 28,800 900 Climbing Indianapolis Center
07:46AM 37.9467 -84.6069 342° North 425 489 29,800 540 Climbing Indianapolis Center
07:47AM 38.0611 -84.6553 342° North 431 496 30,000 60 Climbing Indianapolis Center
07:48AM 38.1828 -84.7014 343° North 450 518 30,000  Level Indianapolis Center
07:49AM 38.3056 -84.7514 342° North 460 529 30,000  Level Indianapolis Center
07:50AM 38.4494 -84.8108 342° North 464 534 30,000  Level Indianapolis Center
07:51AM 38.5650 -84.8589 342° North 440 506 30,000  Level Indianapolis Center
07:52AM 38.6675 -84.9028 342° North 428 493 30,000  Level Indianapolis Center
07:53AM 38.7828 -84.9506 342° North 434 499 30,000  Level Indianapolis Center
07:54AM 38.8992 -84.9992 342° North 439 505 30,000  Level Indianapolis Center
07:55AM 39.0161 -85.0472 342° North 443 510 30,000 -360 Level Indianapolis Center
07:56AM 39.1311 -85.0953 342° North 438 504 29,300 -960 Descending Indianapolis Center
07:57AM 39.2717 -85.1544 342° North 444 511 28,100 -660 Descending Indianapolis Center
07:58AM 39.3758 -85.1986 342° North 406 467 28,000 -60 Descending Indianapolis Center
07:59AM 39.4636 -85.2831 323° Northwest 402 463 28,000  Level Indianapolis Center
08:00AM 39.5483 -85.3739 320° Northwest 398 458 28,000  Level Indianapolis Center
08:01AM 39.6342 -85.4672 320° Northwest 402 463 28,000 -360 Level Indianapolis Center
08:02AM 39.7222 -85.5611 321° Northwest 409 471 27,300 -840 Descending Indianapolis Center
08:03AM 39.8089 -85.6511 321° Northwest 406 467 26,300 -660 Descending Indianapolis Center
08:04AM 39.9083 -85.6942 342° North 395 455 26,000 -300 Descending Indianapolis Center
08:05AM 40.0472 -85.6906 North 417 480 25,800 -480 Descending Indianapolis Center
08:06AM 40.1669 -85.6881 North 429 494 25,100 -720 Descending Indianapolis Center
08:07AM 40.2886 -85.6844 North 438 504 24,400 -540 Descending Indianapolis Center
08:08AM 40.4097 -85.6908 358° North 438 504 24,000 -240 Descending Indianapolis Center
08:09AM 40.5072 -85.7817 325° Northwest 437 503 24,000  Level Indianapolis Center
08:10AM 40.5833 -85.9064 309° West 440 506 24,000 -300 Level Indianapolis Center
08:11AM 40.6628 -86.0344 309° West 450 518 23,500 -540 Descending Indianapolis Center
08:12AM 40.7406 -86.1614 309° West 449 517 23,000 -300 Descending Indianapolis Center
08:13AM 40.8331 -86.3114 309° West 444 511 23,000  Level Indianapolis Center
08:15AM 40.9089 -86.4344 309° West 437 503 23,000  Level Indianapolis Center
08:16AM 40.9831 -86.5575 309° West 431 496 23,000  Level Indianapolis Center
08:17AM 41.0597 -86.6850 309° West 441 507 23,000 -900 Level Indianapolis Center
08:18AM 41.1356 -86.8117 309° West 440 506 21,200 -2,040 Descending Indianapolis Center
08:19AM 41.2056 -86.9292 308° West 412 474 18,900 -2,220 Descending Indianapolis Center
08:20AM 41.2717 -87.0403 308° West 398 458 16,700 -2,220 Descending Indianapolis Center